Time;durP1;ratioP1;P1;durP2;ratioP2;P2;SDS_P1;SDS_P2;PMS_P1;PMS_P2;Temp;Humidity;BMP_temperature;BMP_pressure;BME280_temperature;BME280_humidity;BME280_pressure;Samples;Min_cycle;Max_cycle;Signal;HPM_P1;HPM_P2
2020/12/27 00:01:28;;;;;;;;;;;-2.70;99.90;;;;;;5072671;28;19915;-85
2020/12/27 00:03:53;;;;;;;;;;;-2.70;99.90;;;;;;5068839;28;19909;-85
2020/12/27 00:06:24;;;;;;;;;;;-2.70;99.90;;;;;;5060015;28;19916;-85
2020/12/27 00:08:49;;;;;;;;;;;-2.60;99.90;;;;;;5051406;28;20323;-85
2020/12/27 00:11:15;;;;;;;;;;;-2.70;99.90;;;;;;5052172;28;19917;-85
2020/12/27 00:13:41;;;;;;;;;;;-2.60;99.90;;;;;;5072425;28;19963;-84
2020/12/27 00:16:06;;;;;;;;;;;-2.60;99.90;;;;;;5056628;28;19909;-85
2020/12/27 00:18:32;;;;;;;;;;;-2.60;99.90;;;;;;5069011;28;20282;-84
2020/12/27 00:20:57;;;;;;;;;;;-2.60;99.90;;;;;;5071135;28;19995;-85
2020/12/27 00:23:24;;;;;;;;;;;-2.60;99.90;;;;;;5071414;28;20268;-85
2020/12/27 00:25:49;;;;;;;;;;;-2.60;99.90;;;;;;5072465;28;19970;-85
2020/12/27 00:28:15;;;;;;;;;;;-2.60;99.90;;;;;;5071732;28;19908;-85
2020/12/27 00:30:40;;;;;;;;;;;-2.60;99.90;;;;;;5075146;28;19958;-85
2020/12/27 00:33:05;;;;;;;;;;;-2.60;99.90;;;;;;5076388;28;19912;-85
2020/12/27 00:35:31;;;;;;;;;;;-2.60;99.90;;;;;;5074516;28;19954;-83
2020/12/27 00:37:56;;;;;;;;;;;-2.60;99.90;;;;;;5069219;28;19909;-84
2020/12/27 00:40:22;;;;;;;;;;;-2.70;99.90;;;;;;5076403;28;19909;-85
2020/12/27 00:42:47;;;;;;;;;;;-2.70;99.90;;;;;;5076370;28;20320;-85
2020/12/27 00:45:13;;;;;;;;;;;-2.70;99.90;;;;;;5075109;28;19922;-84
2020/12/27 00:47:38;;;;;;;;;;;-2.70;99.90;;;;;;5076189;28;20327;-84
2020/12/27 00:50:04;;;;;;;;;;;-2.80;99.90;;;;;;5075029;28;19915;-84
2020/12/27 00:52:29;;;;;;;;;;;-2.80;99.90;;;;;;5076179;28;19912;-84
2020/12/27 00:54:55;;;;;;;;;;;-2.80;99.90;;;;;;5074879;28;20028;-85
2020/12/27 00:57:20;;;;;;;;;;;-2.80;99.90;;;;;;5074684;28;19915;-84
2020/12/27 00:59:45;;;;;;;;;;;-2.90;99.90;;;;;;5074689;28;19908;-84
2020/12/27 01:02:11;;;;;;;;;;;-2.90;99.90;;;;;;5074806;28;19909;-85
2020/12/27 01:04:36;;;;;;;;;;;-2.90;99.90;;;;;;5075913;28;19908;-85
2020/12/27 01:07:02;;;;;;;;;;;-2.90;99.90;;;;;;5068845;28;19916;-85
2020/12/27 01:09:27;;;;;;;;;;;-3.00;99.90;;;;;;5054680;28;20322;-84
2020/12/27 01:11:53;;;;;;;;;;;-3.00;99.90;;;;;;5054556;28;19915;-84
2020/12/27 01:14:18;;;;;;;;;;;-2.90;99.90;;;;;;5056134;28;20384;-85
2020/12/27 01:16:48;;;;;;;;;;;-3.00;99.90;;;;;;5074241;28;19919;-84
2020/12/27 01:19:13;;;;;;;;;;;-2.90;99.90;;;;;;5074360;28;19909;-85
2020/12/27 01:21:41;;;;;;;;;;;-2.90;99.90;;;;;;5074410;28;20287;-84
2020/12/27 01:24:07;;;;;;;;;;;-2.90;99.90;;;;;;5075583;28;20528;-85
2020/12/27 01:26:33;;;;;;;;;;;-2.90;99.90;;;;;;5074178;28;19999;-84
2020/12/27 01:28:59;;;;;;;;;;;-2.90;99.90;;;;;;5074248;28;20382;-85
2020/12/27 01:31:25;;;;;;;;;;;-2.90;99.90;;;;;;5074115;28;19913;-85
2020/12/27 01:33:50;;;;;;;;;;;-2.90;99.90;;;;;;5074099;28;19920;-84
2020/12/27 01:36:35;;;;;;;;;;;-2.80;99.90;;;;;;5066859;28;19909;-85
2020/12/27 01:39:03;;;;;;;;;;;-2.80;99.90;;;;;;5059341;28;19916;-85
2020/12/27 01:41:28;;;;;;;;;;;-2.80;99.90;;;;;;5062593;28;19920;-85
2020/12/27 01:44:00;;;;;;;;;;;-2.80;99.90;;;;;;5073759;28;19927;-84
2020/12/27 01:46:25;;;;;;;;;;;-2.80;99.90;;;;;;5075033;28;19913;-85
2020/12/27 01:48:51;;;;;;;;;;;-2.80;99.90;;;;;;5075256;28;20322;-85
2020/12/27 01:51:16;;;;;;;;;;;-2.80;99.90;;;;;;5073850;28;19958;-85
2020/12/27 01:53:41;;;;;;;;;;;-2.80;99.90;;;;;;5073788;28;20351;-85
2020/12/27 01:56:09;;;;;;;;;;;-2.80;99.90;;;;;;5073785;28;19912;-84
2020/12/27 01:58:36;;;;;;;;;;;-2.80;99.90;;;;;;5073690;28;20008;-85
2020/12/27 02:01:01;;;;;;;;;;;-2.80;99.90;;;;;;5073678;28;19912;-84
2020/12/27 02:03:27;;;;;;;;;;;-2.80;99.90;;;;;;5073611;28;19908;-85
2020/12/27 02:05:53;;;;;;;;;;;-2.80;99.90;;;;;;5073366;28;19916;-85
2020/12/27 02:08:19;;;;;;;;;;;-2.80;99.90;;;;;;5057306;28;19959;-85
2020/12/27 02:10:45;;;;;;;;;;;-2.80;99.90;;;;;;5054742;28;19933;-85
2020/12/27 02:13:10;;;;;;;;;;;-2.80;99.90;;;;;;5053579;28;20572;-84
2020/12/27 02:15:36;;;;;;;;;;;-2.80;99.90;;;;;;5053407;28;20014;-85
2020/12/27 02:18:01;;;;;;;;;;;-2.90;99.90;;;;;;5053383;28;20276;-86
2020/12/27 02:20:27;;;;;;;;;;;-2.90;99.90;;;;;;5073281;28;20039;-85
2020/12/27 02:22:52;;;;;;;;;;;-2.80;99.90;;;;;;5073312;28;19908;-84
2020/12/27 02:25:18;;;;;;;;;;;-2.80;99.90;;;;;;5073121;28;19912;-84
2020/12/27 02:27:43;;;;;;;;;;;-2.80;99.90;;;;;;5074405;28;20369;-85
2020/12/27 02:30:09;;;;;;;;;;;-2.80;99.90;;;;;;5074369;28;20724;-85
2020/12/27 02:32:35;;;;;;;;;;;-2.80;99.90;;;;;;5072916;28;19908;-84
2020/12/27 02:35:01;;;;;;;;;;;-2.80;99.90;;;;;;5073087;28;20438;-85
2020/12/27 02:37:26;;;;;;;;;;;-2.80;99.90;;;;;;5064778;28;19944;-85
2020/12/27 02:39:53;;;;;;;;;;;-2.80;99.90;;;;;;5066501;28;20398;-85
2020/12/27 02:42:18;;;;;;;;;;;-2.80;99.90;;;;;;5072869;28;19909;-84
2020/12/27 02:47:27;;;;;;;;;;;-2.80;99.90;;;;;;5074309;28;19954;-85
2020/12/27 02:49:53;;;;;;;;;;;-2.80;99.90;;;;;;5072670;28;19908;-85
2020/12/27 02:52:19;;;;;;;;;;;-2.80;99.90;;;;;;5071675;28;19909;-85
2020/12/27 02:54:44;;;;;;;;;;;-2.80;99.90;;;;;;5071909;28;19926;-85
2020/12/27 02:57:10;;;;;;;;;;;-2.80;99.90;;;;;;5072472;28;20440;-85
2020/12/27 02:59:35;;;;;;;;;;;-2.80;99.90;;;;;;5072826;28;19931;-85
2020/12/27 03:02:01;;;;;;;;;;;-2.80;99.90;;;;;;5072481;28;19994;-85
2020/12/27 03:04:26;;;;;;;;;;;-2.80;99.90;;;;;;5072492;28;19986;-85
2020/12/27 03:06:51;;;;;;;;;;;-2.80;99.90;;;;;;5064841;28;20002;-84
2020/12/27 03:09:17;;;;;;;;;;;-2.90;99.90;;;;;;5055249;28;19909;-84
2020/12/27 03:11:42;;;;;;;;;;;-2.80;99.90;;;;;;5052534;28;19916;-84
2020/12/27 03:14:09;;;;;;;;;;;-2.80;99.90;;;;;;5069779;28;20402;-85
2020/12/27 03:16:34;;;;;;;;;;;-2.80;99.90;;;;;;5072732;28;20344;-84
2020/12/27 03:19:00;;;;;;;;;;;-2.80;99.90;;;;;;5068633;28;19908;-84
2020/12/27 03:21:25;;;;;;;;;;;-2.80;99.90;;;;;;5058703;28;20534;-84
2020/12/27 03:23:51;;;;;;;;;;;-2.80;99.90;;;;;;5073167;28;19918;-84
2020/12/27 03:26:16;;;;;;;;;;;-2.90;99.90;;;;;;5073876;28;19912;-83
2020/12/27 03:28:42;;;;;;;;;;;-2.90;99.90;;;;;;5071319;28;20383;-84
2020/12/27 03:31:07;;;;;;;;;;;-2.90;99.90;;;;;;5072633;28;20286;-84
2020/12/27 03:33:33;;;;;;;;;;;-2.90;99.90;;;;;;5087046;28;19912;-84
2020/12/27 03:35:58;;;;;;;;;;;-2.90;99.90;;;;;;5074225;28;20432;-83
2020/12/27 03:38:24;;;;;;;;;;;-2.90;99.90;;;;;;5068622;28;19931;-84
2020/12/27 03:40:49;;;;;;;;;;;-2.90;99.90;;;;;;5074353;28;19908;-84
2020/12/27 03:43:15;;;;;;;;;;;-2.80;99.90;;;;;;5074173;28;19909;-84
2020/12/27 03:45:41;;;;;;;;;;;-2.80;99.90;;;;;;5072836;28;19916;-85
2020/12/27 03:48:07;;;;;;;;;;;-2.80;99.90;;;;;;5073818;28;20294;-83
2020/12/27 03:50:33;;;;;;;;;;;-2.90;99.90;;;;;;5067769;28;19915;-84
2020/12/27 03:52:58;;;;;;;;;;;-2.90;99.90;;;;;;5060988;28;20333;-84
2020/12/27 03:55:24;;;;;;;;;;;-2.90;99.90;;;;;;5074833;28;20007;-84
2020/12/27 03:57:50;;;;;;;;;;;-2.90;99.90;;;;;;5074151;28;20011;-83
2020/12/27 04:00:15;;;;;;;;;;;-2.90;99.90;;;;;;5074013;28;19931;-83
2020/12/27 04:02:41;;;;;;;;;;;-2.90;99.90;;;;;;5074254;28;19915;-84
2020/12/27 04:05:06;;;;;;;;;;;-2.90;99.90;;;;;;5073960;28;19909;-84
2020/12/27 04:07:32;;;;;;;;;;;-2.90;99.90;;;;;;5073498;28;19915;-84
2020/12/27 04:10:01;;;;;;;;;;;-2.90;99.90;;;;;;5073321;28;20371;-83
2020/12/27 04:12:26;;;;;;;;;;;-3.00;99.90;;;;;;5073592;28;19909;-84
2020/12/27 04:14:52;;;;;;;;;;;-3.00;99.90;;;;;;5073707;28;19921;-84
2020/12/27 04:17:17;;;;;;;;;;;-3.00;99.90;;;;;;5073186;28;19916;-84
2020/12/27 04:19:43;;;;;;;;;;;-3.00;99.90;;;;;;5069664;28;19909;-84
2020/12/27 04:22:08;;;;;;;;;;;-3.10;99.90;;;;;;5055853;28;19909;-85
2020/12/27 04:24:34;;;;;;;;;;;-3.10;99.90;;;;;;5051269;28;19955;-85
2020/12/27 04:26:59;;;;;;;;;;;-3.10;99.90;;;;;;5061087;28;20363;-86
2020/12/27 04:29:25;;;;;;;;;;;-3.10;99.90;;;;;;5071217;28;20015;-85
2020/12/27 04:31:51;;;;;;;;;;;-3.10;99.90;;;;;;5072464;28;19915;-85
2020/12/27 04:34:17;;;;;;;;;;;-3.10;99.90;;;;;;5070951;28;19912;-86
2020/12/27 04:36:42;;;;;;;;;;;-3.10;99.90;;;;;;5072262;28;19909;-84
2020/12/27 04:39:08;;;;;;;;;;;-3.10;99.90;;;;;;5070976;28;19912;-85
2020/12/27 04:41:34;;;;;;;;;;;-3.00;99.90;;;;;;5070984;28;19909;-85
2020/12/27 04:44:00;;;;;;;;;;;-3.10;99.90;;;;;;5070972;28;19924;-85
2020/12/27 04:46:26;;;;;;;;;;;-3.10;99.90;;;;;;5072178;28;19923;-85
2020/12/27 04:48:53;;;;;;;;;;;-3.00;99.90;;;;;;5071117;28;20008;-85
2020/12/27 04:51:18;;;;;;;;;;;-3.00;99.90;;;;;;5062971;28;19951;-86
2020/12/27 04:53:44;;;;;;;;;;;-3.00;99.90;;;;;;5066621;28;19967;-85
2020/12/27 04:56:09;;;;;;;;;;;-3.00;99.90;;;;;;5072205;28;20474;-85
2020/12/27 04:58:35;;;;;;;;;;;-2.90;99.90;;;;;;5071122;28;20412;-84
2020/12/27 05:01:01;;;;;;;;;;;-2.90;99.90;;;;;;5072289;28;19946;-85
2020/12/27 05:03:27;;;;;;;;;;;-2.90;99.90;;;;;;5072221;28;19915;-85
2020/12/27 05:05:53;;;;;;;;;;;-2.90;99.90;;;;;;5070884;28;19912;-85
2020/12/27 05:08:19;;;;;;;;;;;-2.90;99.90;;;;;;5070966;28;19909;-85
2020/12/27 05:10:45;;;;;;;;;;;-2.90;99.90;;;;;;5070749;28;19920;-85
2020/12/27 05:13:11;;;;;;;;;;;-2.90;99.90;;;;;;5070798;28;20283;-84
2020/12/27 05:15:36;;;;;;;;;;;-2.90;99.90;;;;;;5071515;28;20053;-85
2020/12/27 05:18:06;;;;;;;;;;;-2.90;99.90;;;;;;5074418;28;19981;-84
2020/12/27 05:20:32;;;;;;;;;;;-2.90;99.90;;;;;;5063527;28;19909;-85
2020/12/27 05:22:58;;;;;;;;;;;-2.90;99.90;;;;;;5059763;28;19938;-85
2020/12/27 05:25:24;;;;;;;;;;;-2.90;99.90;;;;;;5074377;28;19908;-85
2020/12/27 05:27:53;;;;;;;;;;;-3.00;99.90;;;;;;5075401;28;20286;-85
2020/12/27 05:30:24;;;;;;;;;;;-3.00;99.90;;;;;;5074379;28;19916;-85
2020/12/27 05:32:49;;;;;;;;;;;-3.00;99.90;;;;;;5074245;28;20377;-85
2020/12/27 05:35:15;;;;;;;;;;;-3.00;99.90;;;;;;5074143;28;19915;-85
2020/12/27 05:37:41;;;;;;;;;;;-3.00;99.90;;;;;;5073802;28;20323;-85
2020/12/27 05:40:06;;;;;;;;;;;-3.00;99.90;;;;;;5073946;28;19916;-84
2020/12/27 05:42:32;;;;;;;;;;;-3.00;99.90;;;;;;5073990;28;19915;-85
2020/12/27 05:45:00;;;;;;;;;;;-3.00;99.90;;;;;;5073966;28;20268;-84
2020/12/27 05:47:27;;;;;;;;;;;-2.90;99.90;;;;;;5075074;28;19916;-85
2020/12/27 05:49:53;;;;;;;;;;;-2.90;99.90;;;;;;5069906;28;20008;-86
2020/12/27 05:52:29;;;;;;;;;;;-2.90;99.90;;;;;;5062707;28;21554;-86
2020/12/27 05:54:56;;;;;;;;;;;-3.00;99.90;;;;;;5074390;28;19917;-84
2020/12/27 05:57:21;;;;;;;;;;;-3.00;99.90;;;;;;5075378;28;20315;-86
2020/12/27 05:59:49;;;;;;;;;;;-3.10;99.90;;;;;;5073926;28;19912;-85
2020/12/27 06:02:37;;;;;;;;;;;-3.10;99.90;;;;;;5074330;28;19935;-85
2020/12/27 06:05:05;;;;;;;;;;;-3.00;99.90;;;;;;5073776;28;19935;-85
2020/12/27 06:07:38;;;;;;;;;;;-3.00;99.90;;;;;;5073718;28;19908;-85
2020/12/27 06:10:04;;;;;;;;;;;-3.00;99.90;;;;;;5073419;28;19987;-85
2020/12/27 06:12:53;;;;;;;;;;;-2.90;99.90;;;;;;5073428;28;19916;-85
2020/12/27 06:15:26;;;;;;;;;;;-2.90;99.90;;;;;;5036046;28;19912;-85
2020/12/27 06:17:51;;;;;;;;;;;-2.90;99.90;;;;;;5073295;28;20272;-85
2020/12/27 06:20:17;;;;;;;;;;;-2.80;99.90;;;;;;5056937;28;19916;-85
2020/12/27 06:22:46;;;;;;;;;;;-2.80;99.90;;;;;;5053190;28;20270;-84
2020/12/27 06:25:12;;;;;;;;;;;-2.80;99.90;;;;;;5053352;28;20028;-85
2020/12/27 06:27:38;;;;;;;;;;;-2.70;99.90;;;;;;5052817;28;19954;-85
2020/12/27 06:30:20;;;;;;;;;;;-2.70;99.90;;;;;;5054332;28;19908;-85
2020/12/27 06:32:47;;;;;;;;;;;-2.60;99.90;;;;;;5066644;28;19916;-85
2020/12/27 06:35:13;;;;;;;;;;;-2.60;99.90;;;;;;5073180;28;19909;-87
2020/12/27 06:37:39;;;;;;;;;;;-2.60;99.90;;;;;;5052791;28;19916;-85
2020/12/27 06:40:05;;;;;;;;;;;-2.60;99.90;;;;;;5067235;28;20006;-85
2020/12/27 06:42:30;;;;;;;;;;;-2.60;99.90;;;;;;5072894;28;20050;-85
2020/12/27 06:44:56;;;;;;;;;;;-2.60;99.90;;;;;;5072781;28;20298;-85
2020/12/27 06:47:41;;;;;;;;;;;-2.50;99.90;;;;;;5072598;28;19908;-85
2020/12/27 06:50:14;;;;;;;;;;;-2.50;99.90;;;;;;5065162;28;19951;-85
2020/12/27 06:52:39;;;;;;;;;;;-2.50;99.90;;;;;;5064466;28;19908;-85
2020/12/27 06:55:05;;;;;;;;;;;-2.50;99.90;;;;;;5072639;28;19908;-85
2020/12/27 06:57:40;;;;;;;;;;;-2.50;99.90;;;;;;5072382;28;19915;-85
2020/12/27 07:00:22;;;;;;;;;;;-2.50;99.90;;;;;;5072944;28;20371;-85
2020/12/27 07:02:48;;;;;;;;;;;-2.50;99.90;;;;;;5073857;28;19970;-86
2020/12/27 07:05:30;;;;;;;;;;;-2.50;99.90;;;;;;5073797;28;20371;-84
2020/12/27 07:07:56;;;;;;;;;;;-2.50;99.90;;;;;;5072297;28;19913;-85
2020/12/27 07:10:22;;;;;;;;;;;-2.50;99.90;;;;;;5073611;28;19950;-85
2020/12/27 07:12:47;;;;;;;;;;;-2.50;99.90;;;;;;5072234;28;19959;-85
2020/12/27 07:15:14;;;;;;;;;;;-2.50;99.90;;;;;;5073557;28;19908;-85
2020/12/27 07:17:41;;;;;;;;;;;-2.40;99.90;;;;;;5073791;28;20298;-85
2020/12/27 07:20:15;;;;;;;;;;;-2.40;99.90;;;;;;5064115;28;19952;-85
2020/12/27 07:22:42;;;;;;;;;;;-2.40;99.90;;;;;;5060016;28;19908;-85
2020/12/27 07:25:11;;;;;;;;;;;-2.40;99.90;;;;;;5072055;28;20511;-85
2020/12/27 07:27:39;;;;;;;;;;;-2.40;99.90;;;;;;5073104;28;19908;-85
2020/12/27 07:30:05;;;;;;;;;;;-2.30;99.90;;;;;;5072019;28;20003;-85
2020/12/27 07:32:32;;;;;;;;;;;-2.40;99.90;;;;;;5071993;28;19909;-86
2020/12/27 07:34:57;;;;;;;;;;;-2.30;99.90;;;;;;5068562;28;19913;-85
2020/12/27 07:37:25;;;;;;;;;;;-2.30;99.90;;;;;;5071431;28;19934;-85
2020/12/27 07:39:51;;;;;;;;;;;-2.30;99.90;;;;;;5067976;28;19908;-85
2020/12/27 07:42:20;;;;;;;;;;;-2.30;99.90;;;;;;5071720;28;19909;-85
2020/12/27 07:44:46;;;;;;;;;;;-2.30;99.90;;;;;;5071795;28;19942;-86
2020/12/27 07:47:11;;;;;;;;;;;-2.30;99.90;;;;;;5071751;28;20015;-85
2020/12/27 07:49:36;;;;;;;;;;;-2.20;99.90;;;;;;5071878;28;19955;-86
2020/12/27 07:52:02;;;;;;;;;;;-2.20;99.90;;;;;;5071752;28;20359;-85
2020/12/27 07:54:27;;;;;;;;;;;-2.20;99.90;;;;;;5071515;28;19920;-85
2020/12/27 07:56:53;;;;;;;;;;;-2.10;99.90;;;;;;5072743;28;20372;-85
2020/12/27 07:59:18;;;;;;;;;;;-2.10;99.90;;;;;;5064154;28;19908;-86
2020/12/27 08:01:44;;;;;;;;;;;-2.00;99.90;;;;;;5051574;28;19919;-86
2020/12/27 08:04:09;;;;;;;;;;;-2.00;99.90;;;;;;5051484;28;20367;-86
2020/12/27 08:06:36;;;;;;;;;;;-2.00;99.90;;;;;;5061510;28;19908;-86
2020/12/27 08:09:06;;;;;;;;;;;-1.90;99.90;;;;;;5071530;28;19935;-85
2020/12/27 08:11:32;;;;;;;;;;;-1.90;99.90;;;;;;5071453;28;19913;-85
2020/12/27 08:13:59;;;;;;;;;;;-1.90;99.90;;;;;;5071502;28;19916;-85
2020/12/27 08:16:24;;;;;;;;;;;-1.80;99.90;;;;;;5071352;28;20425;-85
2020/12/27 08:19:00;;;;;;;;;;;-1.80;99.90;;;;;;5067037;28;19975;-85
2020/12/27 08:21:25;;;;;;;;;;;-1.80;99.90;;;;;;5050985;28;19909;-85
2020/12/27 08:24:01;;;;;;;;;;;-1.70;99.90;;;;;;5055478;28;19916;-85
2020/12/27 08:26:27;;;;;;;;;;;-1.60;99.90;;;;;;5071196;28;19999;-85
2020/12/27 08:28:52;;;;;;;;;;;-1.60;99.90;;;;;;5071105;28;19908;-85
2020/12/27 08:31:25;;;;;;;;;;;-1.60;99.90;;;;;;5069629;28;20388;-85
2020/12/27 08:33:50;;;;;;;;;;;-1.60;99.90;;;;;;5071275;28;19919;-85
2020/12/27 08:36:21;;;;;;;;;;;-1.50;99.90;;;;;;5066413;28;19909;-86
2020/12/27 08:38:49;;;;;;;;;;;-1.50;99.90;;;;;;5072315;28;20389;-85
2020/12/27 08:41:27;;;;;;;;;;;-1.40;99.90;;;;;;5054621;28;20621;-85
2020/12/27 08:43:58;;;;;;;;;;;-1.30;99.90;;;;;;5053169;28;19919;-85
2020/12/27 08:46:33;;;;;;;;;;;-1.30;99.90;;;;;;5068696;28;19916;-85
2020/12/27 08:49:02;;;;;;;;;;;-1.30;99.90;;;;;;5072021;28;20386;-84
2020/12/27 08:51:32;;;;;;;;;;;-1.20;99.90;;;;;;5074825;28;19909;-87
2020/12/27 08:53:57;;;;;;;;;;;-1.20;99.90;;;;;;5075773;28;19920;-85
2020/12/27 08:56:23;;;;;;;;;;;-1.20;99.90;;;;;;5078098;28;19909;-85
2020/12/27 08:58:55;;;;;;;;;;;-1.20;99.90;;;;;;5077731;28;20357;-84
2020/12/27 09:01:24;;;;;;;;;;;-1.20;99.90;;;;;;5078091;28;19935;-84
2020/12/27 09:03:50;;;;;;;;;;;-1.20;99.90;;;;;;5078334;28;20455;-84
2020/12/27 09:06:15;;;;;;;;;;;-1.20;99.90;;;;;;5077189;28;19951;-85
2020/12/27 09:08:41;;;;;;;;;;;-1.20;99.90;;;;;;5076095;28;19952;-85
2020/12/27 09:11:07;;;;;;;;;;;-1.20;99.90;;;;;;5076218;28;20420;-85
2020/12/27 09:13:39;;;;;;;;;;;-1.20;99.90;;;;;;5074704;28;19913;-84
2020/12/27 09:16:05;;;;;;;;;;;-1.10;99.90;;;;;;5060336;28;19960;-85
2020/12/27 09:18:32;;;;;;;;;;;-1.00;99.90;;;;;;5056171;28;19948;-85
2020/12/27 09:20:59;;;;;;;;;;;-0.90;99.90;;;;;;5070319;28;19948;-85
2020/12/27 09:23:24;;;;;;;;;;;-0.80;99.90;;;;;;5074441;28;19919;-85
2020/12/27 09:26:09;;;;;;;;;;;-0.70;99.90;;;;;;5074368;28;19909;-85
2020/12/27 09:28:35;;;;;;;;;;;-0.70;99.90;;;;;;5075775;28;20621;-85
2020/12/27 09:31:02;;;;;;;;;;;-0.60;99.90;;;;;;5074371;28;19915;-85
2020/12/27 09:33:29;;;;;;;;;;;-0.60;99.90;;;;;;5074327;28;19966;-85
2020/12/27 09:35:55;;;;;;;;;;;-0.50;99.90;;;;;;5075581;28;20343;-85
2020/12/27 09:38:22;;;;;;;;;;;-0.40;99.90;;;;;;5075786;28;19916;-85
2020/12/27 09:41:00;;;;;;;;;;;-0.40;99.90;;;;;;5074241;28;19915;-85
2020/12/27 09:43:25;;;;;;;;;;;-0.50;99.90;;;;;;5074239;28;19908;-86
2020/12/27 09:45:51;;;;;;;;;;;-0.40;99.90;;;;;;5073967;28;19919;-84
2020/12/27 09:48:16;;;;;;;;;;;-0.40;99.90;;;;;;5075358;28;20474;-85
2020/12/27 09:50:41;;;;;;;;;;;-0.30;99.90;;;;;;5074184;28;19909;-85
2020/12/27 09:53:16;;;;;;;;;;;-0.30;99.90;;;;;;5074319;28;20363;-86
2020/12/27 09:55:42;;;;;;;;;;;-0.20;99.90;;;;;;5074020;28;19909;-86
2020/12/27 09:58:11;;;;;;;;;;;-0.10;99.90;;;;;;5074211;28;19908;-85
2020/12/27 10:00:36;;;;;;;;;;;-0.10;99.90;;;;;;5073969;28;19949;-85
2020/12/27 10:03:02;;;;;;;;;;;-0.10;99.90;;;;;;5073543;28;20392;-85
2020/12/27 10:05:28;;;;;;;;;;;0.00;99.90;;;;;;5074185;28;19909;-86
2020/12/27 10:07:53;;;;;;;;;;;0.00;99.90;;;;;;5073899;28;19916;-85
2020/12/27 10:10:18;;;;;;;;;;;0.10;99.90;;;;;;5075052;28;20481;-85
2020/12/27 10:12:44;;;;;;;;;;;0.10;99.90;;;;;;5073795;28;20371;-85
2020/12/27 10:15:10;;;;;;;;;;;0.10;99.90;;;;;;5065563;28;19908;-86
2020/12/27 10:17:35;;;;;;;;;;;0.20;99.90;;;;;;5061723;28;19916;-85
2020/12/27 10:20:01;;;;;;;;;;;0.20;99.90;;;;;;5054994;28;19909;-86
2020/12/27 10:22:27;;;;;;;;;;;0.30;99.90;;;;;;5063230;28;19908;-86
2020/12/27 10:24:53;;;;;;;;;;;0.30;99.90;;;;;;5074544;28;19962;-86
2020/12/27 10:27:18;;;;;;;;;;;0.30;99.90;;;;;;5073434;28;19908;-85
2020/12/27 10:29:44;;;;;;;;;;;0.30;99.90;;;;;;5073428;28;19909;-85
2020/12/27 10:32:09;;;;;;;;;;;0.40;99.90;;;;;;5074385;28;19908;-86
2020/12/27 10:34:35;;;;;;;;;;;0.40;99.90;;;;;;5074111;28;19917;-85
2020/12/27 10:37:01;;;;;;;;;;;0.40;99.90;;;;;;5072398;28;19915;-84
2020/12/27 10:39:27;;;;;;;;;;;0.40;99.90;;;;;;5073005;28;19962;-85
2020/12/27 10:41:53;;;;;;;;;;;0.40;99.90;;;;;;5072876;28;19909;-86
2020/12/27 10:44:19;;;;;;;;;;;0.40;99.90;;;;;;5064823;28;19917;-86
2020/12/27 10:46:45;;;;;;;;;;;0.40;99.90;;;;;;5072501;28;19909;-85
2020/12/27 10:49:12;;;;;;;;;;;0.40;99.90;;;;;;5074116;28;20291;-85
2020/12/27 10:51:37;;;;;;;;;;;0.40;99.90;;;;;;5074090;28;19963;-85
2020/12/27 10:54:03;;;;;;;;;;;0.40;99.90;;;;;;5072762;28;19912;-86
2020/12/27 10:56:29;;;;;;;;;;;0.40;99.90;;;;;;5072574;28;19958;-85
2020/12/27 10:58:54;;;;;;;;;;;0.40;99.90;;;;;;5072509;28;19913;-86
2020/12/27 11:01:21;;;;;;;;;;;0.50;99.90;;;;;;5072492;28;20353;-85
2020/12/27 11:03:46;;;;;;;;;;;0.50;99.90;;;;;;5072538;28;20147;-85
2020/12/27 11:06:11;;;;;;;;;;;0.50;99.90;;;;;;5072414;28;19909;-86
2020/12/27 11:08:37;;;;;;;;;;;0.50;99.90;;;;;;5072510;28;19935;-86
2020/12/27 11:11:03;;;;;;;;;;;0.60;99.90;;;;;;5072358;28;19908;-85
2020/12/27 11:13:28;;;;;;;;;;;0.60;99.90;;;;;;5070834;28;19912;-85
2020/12/27 11:15:54;;;;;;;;;;;0.60;99.90;;;;;;5066122;28;19909;-84
2020/12/27 11:18:19;;;;;;;;;;;0.50;99.90;;;;;;5072351;28;19959;-85
2020/12/27 11:20:45;;;;;;;;;;;0.50;99.90;;;;;;5073358;28;19966;-85
2020/12/27 11:23:11;;;;;;;;;;;0.50;99.90;;;;;;5072209;28;20009;-85
2020/12/27 11:25:36;;;;;;;;;;;0.60;99.90;;;;;;5072114;28;20345;-85
2020/12/27 11:28:02;;;;;;;;;;;0.70;99.90;;;;;;5072346;28;20277;-85
2020/12/27 11:30:27;;;;;;;;;;;0.80;99.90;;;;;;5073214;28;20003;-85
2020/12/27 11:32:53;;;;;;;;;;;0.80;99.90;;;;;;5073221;28;19961;-84
2020/12/27 11:35:18;;;;;;;;;;;0.80;99.90;;;;;;5071975;28;20385;-85
2020/12/27 11:37:44;;;;;;;;;;;0.80;99.90;;;;;;5071716;28;19927;-85
2020/12/27 11:40:09;;;;;;;;;;;0.70;99.90;;;;;;5071783;28;19908;-85
2020/12/27 11:42:36;;;;;;;;;;;0.70;99.90;;;;;;5071863;28;19973;-85
2020/12/27 11:45:03;;;;;;;;;;;0.80;99.90;;;;;;5064851;28;20008;-86
2020/12/27 11:47:28;;;;;;;;;;;0.80;99.90;;;;;;5051441;28;19909;-85
2020/12/27 11:49:54;;;;;;;;;;;0.80;99.90;;;;;;5052585;28;19962;-85
2020/12/27 11:52:19;;;;;;;;;;;0.80;99.90;;;;;;5071851;28;19908;-85
2020/12/27 11:54:44;;;;;;;;;;;0.90;99.90;;;;;;5071648;28;20320;-85
2020/12/27 11:57:10;;;;;;;;;;;0.90;99.90;;;;;;5071401;28;19915;-85
2020/12/27 11:59:35;;;;;;;;;;;1.00;99.90;;;;;;5071615;28;19909;-85
2020/12/27 12:02:01;;;;;;;;;;;1.10;99.90;;;;;;5071595;28;19909;-85
2020/12/27 12:04:26;;;;;;;;;;;1.00;99.90;;;;;;5073416;28;19958;-86
2020/12/27 12:06:52;;;;;;;;;;;1.00;99.90;;;;;;5072615;28;20038;-85
2020/12/27 12:09:17;;;;;;;;;;;1.00;99.90;;;;;;5072882;28;19908;-85
2020/12/27 12:11:43;;;;;;;;;;;1.00;99.90;;;;;;5071567;28;20326;-85
2020/12/27 12:14:08;;;;;;;;;;;0.90;99.90;;;;;;5064071;28;19917;-85
2020/12/27 12:16:34;;;;;;;;;;;0.90;99.90;;;;;;5059426;28;19918;-85
2020/12/27 12:19:01;;;;;;;;;;;1.00;99.90;;;;;;5052680;28;19916;-85
2020/12/27 12:21:27;;;;;;;;;;;1.00;99.90;;;;;;5068031;28;19908;-86
2020/12/27 12:23:53;;;;;;;;;;;1.10;99.90;;;;;;5052610;28;19962;-86
2020/12/27 12:26:22;;;;;;;;;;;1.20;99.90;;;;;;5051009;28;19909;-85
2020/12/27 12:28:48;;;;;;;;;;;1.10;99.90;;;;;;5062190;28;20287;-85
2020/12/27 12:31:14;;;;;;;;;;;1.20;99.90;;;;;;5071257;28;19909;-85
2020/12/27 12:33:39;;;;;;;;;;;1.20;99.90;;;;;;5071330;28;20038;-85
2020/12/27 12:36:05;;;;;;;;;;;1.30;99.90;;;;;;5070831;28;19951;-85
2020/12/27 12:38:31;;;;;;;;;;;1.30;99.90;;;;;;5059724;28;19996;-85
2020/12/27 12:40:56;;;;;;;;;;;1.40;99.90;;;;;;5068858;28;19909;-85
2020/12/27 12:43:22;;;;;;;;;;;1.30;99.90;;;;;;5071223;28;19909;-85
2020/12/27 12:45:47;;;;;;;;;;;1.30;99.90;;;;;;5072434;28;19912;-85
2020/12/27 12:48:13;;;;;;;;;;;1.30;99.90;;;;;;5071172;28;19908;-85
2020/12/27 12:50:38;;;;;;;;;;;1.20;99.90;;;;;;5071079;28;19962;-85
2020/12/27 12:53:04;;;;;;;;;;;1.20;99.90;;;;;;5071036;28;20042;-85
2020/12/27 12:55:29;;;;;;;;;;;1.20;99.90;;;;;;5071085;28;19921;-85
2020/12/27 12:57:54;;;;;;;;;;;1.30;99.90;;;;;;5072052;28;19913;-85
2020/12/27 13:00:20;;;;;;;;;;;1.30;99.90;;;;;;5070941;28;19963;-85
2020/12/27 13:02:45;;;;;;;;;;;1.30;99.90;;;;;;5070993;28;19946;-86
2020/12/27 13:05:11;;;;;;;;;;;1.30;99.90;;;;;;5071132;28;19909;-86
2020/12/27 13:07:37;;;;;;;;;;;1.30;99.90;;;;;;5071944;28;19998;-85
2020/12/27 13:10:03;;;;;;;;;;;1.30;99.90;;;;;;5063956;28;20326;-85
2020/12/27 13:12:28;;;;;;;;;;;1.30;99.90;;;;;;5050863;28;20005;-85
2020/12/27 13:14:54;;;;;;;;;;;1.20;99.90;;;;;;5050634;28;19939;-85
2020/12/27 13:17:19;;;;;;;;;;;1.20;99.90;;;;;;5051945;28;19909;-85
2020/12/27 13:19:45;;;;;;;;;;;1.20;99.90;;;;;;5050852;28;20391;-85
2020/12/27 13:22:10;;;;;;;;;;;1.30;99.90;;;;;;5050654;28;19909;-85
2020/12/27 13:24:35;;;;;;;;;;;1.30;99.90;;;;;;5050767;28;19915;-86
2020/12/27 13:27:01;;;;;;;;;;;1.40;99.90;;;;;;5050521;28;19909;-86
2020/12/27 13:29:26;;;;;;;;;;;1.40;99.90;;;;;;5051916;28;19995;-85
2020/12/27 13:31:52;;;;;;;;;;;1.40;99.90;;;;;;5051838;28;19952;-85
2020/12/27 13:34:17;;;;;;;;;;;1.50;99.90;;;;;;5050614;28;19916;-86
2020/12/27 13:36:43;;;;;;;;;;;1.50;99.90;;;;;;5056331;28;20356;-85
2020/12/27 13:39:08;;;;;;;;;;;1.50;99.90;;;;;;5059304;28;19916;-85
2020/12/27 13:41:35;;;;;;;;;;;1.50;99.90;;;;;;5074645;28;20023;-85
2020/12/27 13:44:00;;;;;;;;;;;1.50;99.90;;;;;;5074006;28;19962;-85
2020/12/27 13:46:26;;;;;;;;;;;1.50;99.90;;;;;;5074008;28;20438;-85
2020/12/27 13:48:51;;;;;;;;;;;1.50;99.90;;;;;;5074108;28;19909;-85
2020/12/27 13:51:20;;;;;;;;;;;1.50;99.90;;;;;;5074037;28;19908;-86
2020/12/27 13:53:46;;;;;;;;;;;1.50;99.90;;;;;;5073955;28;19960;-85
2020/12/27 13:56:11;;;;;;;;;;;1.60;99.90;;;;;;5074885;28;19908;-85
2020/12/27 13:58:37;;;;;;;;;;;1.60;99.90;;;;;;5073916;28;19908;-85
2020/12/27 14:01:02;;;;;;;;;;;1.60;99.90;;;;;;5055951;28;20367;-85
2020/12/27 14:03:28;;;;;;;;;;;1.70;99.90;;;;;;5069756;28;19962;-86
2020/12/27 14:05:54;;;;;;;;;;;1.70;99.90;;;;;;5073526;28;19931;-86
2020/12/27 14:08:19;;;;;;;;;;;1.60;99.90;;;;;;5073819;28;19912;-85
2020/12/27 14:10:45;;;;;;;;;;;1.60;99.90;;;;;;5073655;28;19912;-85
2020/12/27 14:13:10;;;;;;;;;;;1.70;99.90;;;;;;5073502;28;19931;-85
2020/12/27 14:15:36;;;;;;;;;;;1.70;99.90;;;;;;5075183;28;20434;-85
2020/12/27 14:18:01;;;;;;;;;;;1.70;99.90;;;;;;5073900;28;19916;-84
2020/12/27 14:20:27;;;;;;;;;;;1.70;99.90;;;;;;5066068;28;19954;-84